Aeroporto :
LOGIN :

Iscrizione | Disclaimer

   EN    FR    IT 

 










Sommario :    VFR   VFR Marginale   IFR   IFR Intensivo   IFR Molto Intensivo
Visibilità : 
Base nubi : 
>= 8 km
>= 3000ft
5 / 8 km
1000 / 3000 ft
1500m / 5 km
500 / 1000 ft
800 / 1500m
200 / 500 ft
< 800m
< 200 ft
Simboli :   Temporali  Nebbia  Neve Forte  Precipitazioni Forti  Vento > 20 kt
SIGMETs :   Varie  Temporali  Ghiacco  Turbolenza  Onda orograficha  Ceneri Vulcaniche







- Altitudine del aeroporto : 325 ft
- Codice IATA : BES
- Carte del aeroporto


LFRB - Brest

ULTIMO METAR :
  • 190130Z AUTO 05004KT 3300 BR VV/// 13/13 Q1008 TEMPO 1200 TSRA SCT045CB

METARs OBSOLETI :
  • 190100Z AUTO 02004KT 350V050 1500 1300 R25/1600N R07/P2000 BR VV/// 13/13 Q1008 TEMPO TSRA SCT045CB
  • 190030Z AUTO 01005KT 340V040 1300 1000 R25/1200U R07/P2000 BR VV/// 13/13 Q1008 TEMPO TSRA SCT045CB
  • 190000Z AUTO 35005KT 0750 0650 R25/0900U R07/0800N FG VV/// 14/13 Q1008 TEMPO 1200 TSRA SCT045CB
  • 182330Z AUTO 35007KT 0600 0550 R25/0800N R07/0650N FG VV/// 14/13 Q1008 TEMPO 1200 TSRA BKN012CB
  • 182300Z AUTO 35007KT 0700 0550 R25/1400D R07/1300U FG VV/// 14/14 Q1008 TEMPO 1200 TSRA BKN012CB
  • 182230Z AUTO 34005KT 3900 1000 R25/P2000 R07/1300D BR FEW001 BKN160 15/14 Q1009 TEMPO 1200 TSRA BKN012CB

TAF TAF LFRB
Valido dal 19 a 00 ore il 20 a 06 ore UTC


182300Z 1900/2006 36005KT 0500 FG VV///
PROB40
TEMPO 1900/1906 1200 TSRA SCT045CB
BECMG 1908/1910 9999 SCT018
TEMPO 1900/1912 4000 SHRA
TEMPO 1912/1915 33010KT
ATIS : +33 2 98 32 02 71
Nessun NOTAM noto per questo aeroporto.



MetMap, La meteo Aeronautica in un colpo d'occhio ! - Copyright ORBIFLY Dicembre 2007 - Disclaimer

ORBIFLY MET'MAP TEAM :

Programmazione e sviluppo : Alexandra Zaïnal
Concezione e sviluppo : Baudouin d'Aumeries
Co-Programmazione e sviluppo : Marc-Olivier Méhu
Supporto tecnico e logistico : Manuel Goepfert
Aiuto per la traduzione : Arnaldo La Scala

Contatto : metmap@orbifly.com




FONTI E CREDITI :

   NOAA